sensor_id;sensor_type;location;lat;lon;timestamp;pressure;altitude;pressure_sealevel;temperature;humidity
75231;BME280;63814;50.118;8.714;2022-10-16T00:01:07;99983.72;;;14.55;88.65
75231;BME280;63814;50.118;8.714;2022-10-16T00:03:35;99994.88;;;14.58;88.68
75231;BME280;63814;50.118;8.714;2022-10-16T00:06:02;99993.41;;;14.54;88.81
75231;BME280;63814;50.118;8.714;2022-10-16T00:08:29;99974.56;;;14.59;88.79
75231;BME280;63814;50.118;8.714;2022-10-16T00:11:00;99966.06;;;14.55;88.84
75231;BME280;63814;50.118;8.714;2022-10-16T00:13:27;99948.66;;;14.53;88.75
75231;BME280;63814;50.118;8.714;2022-10-16T00:15:55;99970.38;;;14.56;88.99
75231;BME280;63814;50.118;8.714;2022-10-16T00:18:22;99963.44;;;14.55;89.15
75231;BME280;63814;50.118;8.714;2022-10-16T00:20:50;99954.69;;;14.55;89.11
75231;BME280;63814;50.118;8.714;2022-10-16T00:23:17;99959.00;;;14.56;89.26
75231;BME280;63814;50.118;8.714;2022-10-16T00:25:43;99965.94;;;14.57;89.31
75231;BME280;63814;50.118;8.714;2022-10-16T00:28:10;99969.06;;;14.62;88.82
75231;BME280;63814;50.118;8.714;2022-10-16T00:30:37;99980.34;;;14.64;88.99
75231;BME280;63814;50.118;8.714;2022-10-16T00:33:04;99970.38;;;14.56;88.93
75231;BME280;63814;50.118;8.714;2022-10-16T00:35:30;99990.28;;;14.72;88.86
75231;BME280;63814;50.118;8.714;2022-10-16T00:37:58;99974.44;;;14.72;88.60
75231;BME280;63814;50.118;8.714;2022-10-16T00:40:25;99971.94;;;14.70;88.76
75231;BME280;63814;50.118;8.714;2022-10-16T00:42:53;99982.72;;;14.67;88.81
75231;BME280;63814;50.118;8.714;2022-10-16T00:45:19;99949.53;;;14.53;89.00
75231;BME280;63814;50.118;8.714;2022-10-16T00:47:46;99970.50;;;14.66;88.85
75231;BME280;63814;50.118;8.714;2022-10-16T00:50:18;99973.38;;;14.63;89.15
75231;BME280;63814;50.118;8.714;2022-10-16T00:52:50;99974.69;;;14.69;88.89
75231;BME280;63814;50.118;8.714;2022-10-16T00:55:19;99965.81;;;14.70;88.78
75231;BME280;63814;50.118;8.714;2022-10-16T00:57:46;99971.94;;;14.70;88.85
75231;BME280;63814;50.118;8.714;2022-10-16T01:00:16;99970.97;;;14.71;88.76
75231;BME280;63814;50.118;8.714;2022-10-16T01:02:43;99981.19;;;14.76;88.84
75231;BME280;63814;50.118;8.714;2022-10-16T01:05:10;99976.38;;;14.70;88.95
75231;BME280;63814;50.118;8.714;2022-10-16T01:07:41;99965.69;;;14.60;89.10
75231;BME280;63814;50.118;8.714;2022-10-16T01:10:21;99975.53;;;14.69;88.97
75231;BME280;63814;50.118;8.714;2022-10-16T01:12:54;99988.59;;;14.71;88.90
75231;BME280;63814;50.118;8.714;2022-10-16T01:15:27;100000.81;;;14.72;88.86
75231;BME280;63814;50.118;8.714;2022-10-16T01:18:00;99997.03;;;14.76;88.77
75231;BME280;63814;50.118;8.714;2022-10-16T01:20:31;99994.63;;;14.73;88.83
75231;BME280;63814;50.118;8.714;2022-10-16T01:23:10;99991.72;;;14.65;89.13
75231;BME280;63814;50.118;8.714;2022-10-16T01:25:55;100006.09;;;14.72;88.84
75231;BME280;63814;50.118;8.714;2022-10-16T01:28:33;100002.31;;;14.76;88.55
75231;BME280;63814;50.118;8.714;2022-10-16T01:31:01;100011.19;;;14.75;88.76
75231;BME280;63814;50.118;8.714;2022-10-16T01:33:33;100011.19;;;14.75;88.92
75231;BME280;63814;50.118;8.714;2022-10-16T01:36:03;99984.28;;;14.70;89.13
75231;BME280;63814;50.118;8.714;2022-10-16T01:38:34;99960.69;;;14.57;89.07
75231;BME280;63814;50.118;8.714;2022-10-16T01:41:07;99983.31;;;14.71;89.25
75231;BME280;63814;50.118;8.714;2022-10-16T01:43:39;99985.97;;;14.71;89.67
75231;BME280;63814;50.118;8.714;2022-10-16T01:46:08;99985.34;;;14.67;89.25
75231;BME280;63814;50.118;8.714;2022-10-16T01:48:36;99987.41;;;14.64;89.51
75231;BME280;63814;50.118;8.714;2022-10-16T01:51:06;99974.22;;;14.52;89.21
75231;BME280;63814;50.118;8.714;2022-10-16T01:53:33;99978.78;;;14.62;89.13
75231;BME280;63814;50.118;8.714;2022-10-16T01:56:00;99994.00;;;14.58;89.12
75231;BME280;63814;50.118;8.714;2022-10-16T01:58:30;99997.34;;;14.60;88.87
75231;BME280;63814;50.118;8.714;2022-10-16T02:01:01;100014.38;;;14.67;88.75
75231;BME280;63814;50.118;8.714;2022-10-16T02:03:28;100007.31;;;14.56;88.81
75231;BME280;63814;50.118;8.714;2022-10-16T02:05:56;100011.41;;;14.61;88.76
75231;BME280;63814;50.118;8.714;2022-10-16T02:08:26;100011.50;;;14.59;88.36
75231;BME280;63814;50.118;8.714;2022-10-16T02:10:54;100001.56;;;14.63;87.64
75231;BME280;63814;50.118;8.714;2022-10-16T02:13:23;99998.56;;;14.56;87.91
75231;BME280;63814;50.118;8.714;2022-10-16T02:15:52;100011.88;;;14.54;88.08
75231;BME280;63814;50.118;8.714;2022-10-16T02:18:20;100015.22;;;14.56;87.75
75231;BME280;63814;50.118;8.714;2022-10-16T02:20:51;100012.22;;;14.61;87.58
75231;BME280;63814;50.118;8.714;2022-10-16T02:23:24;100026.03;;;14.53;88.15
75231;BME280;63814;50.118;8.714;2022-10-16T02:25:55;100026.25;;;14.50;87.50
75231;BME280;63814;50.118;8.714;2022-10-16T02:28:27;100033.69;;;14.56;87.06
75231;BME280;63814;50.118;8.714;2022-10-16T02:30:57;100012.59;;;14.45;87.34
75231;BME280;63814;50.118;8.714;2022-10-16T02:33:27;100021.84;;;14.51;86.75
75231;BME280;63814;50.118;8.714;2022-10-16T02:35:55;100022.41;;;14.43;86.99
75231;BME280;63814;50.118;8.714;2022-10-16T02:38:24;100022.91;;;14.48;87.27
75231;BME280;63814;50.118;8.714;2022-10-16T02:40:51;100027.38;;;14.48;86.95
75231;BME280;63814;50.118;8.714;2022-10-16T02:43:18;100003.25;;;14.41;86.48
75231;BME280;63814;50.118;8.714;2022-10-16T02:45:45;100019.19;;;14.51;86.21
75231;BME280;63814;50.118;8.714;2022-10-16T02:48:12;100015.38;;;14.55;86.02
75231;BME280;63814;50.118;8.714;2022-10-16T02:50:39;100019.56;;;14.46;86.37
75231;BME280;63814;50.118;8.714;2022-10-16T02:53:06;100032.75;;;14.46;86.60
75231;BME280;63814;50.118;8.714;2022-10-16T02:55:32;100022.91;;;14.48;86.73
75231;BME280;63814;50.118;8.714;2022-10-16T02:57:59;100025.31;;;14.51;86.04
75231;BME280;63814;50.118;8.714;2022-10-16T03:00:25;100029.16;;;14.47;86.81
75231;BME280;63814;50.118;8.714;2022-10-16T03:02:52;100024.22;;;14.42;87.35
75231;BME280;63814;50.118;8.714;2022-10-16T03:05:18;100033.94;;;14.42;87.54
75231;BME280;63814;50.118;8.714;2022-10-16T03:07:46;100033.69;;;14.34;87.87
75231;BME280;63814;50.118;8.714;2022-10-16T03:10:13;100040.63;;;14.35;88.02
75231;BME280;63814;50.118;8.714;2022-10-16T03:12:39;100053.59;;;14.38;87.78
75231;BME280;63814;50.118;8.714;2022-10-16T03:15:06;100051.06;;;14.36;87.81
75231;BME280;63814;50.118;8.714;2022-10-16T03:17:33;100048.69;;;14.33;88.14
75231;BME280;63814;50.118;8.714;2022-10-16T03:20:00;100052.25;;;14.32;88.34
75231;BME280;63814;50.118;8.714;2022-10-16T03:22:26;100043.53;;;14.31;88.02
75231;BME280;63814;50.118;8.714;2022-10-16T03:24:54;100040.16;;;14.29;87.98
75231;BME280;63814;50.118;8.714;2022-10-16T03:27:21;100049.28;;;14.37;87.87
75231;BME280;63814;50.118;8.714;2022-10-16T03:29:48;100050.72;;;14.29;88.51
75231;BME280;63814;50.118;8.714;2022-10-16T03:32:14;100056.91;;;14.28;87.86
75231;BME280;63814;50.118;8.714;2022-10-16T03:34:41;100060.75;;;14.24;87.97
75231;BME280;63814;50.118;8.714;2022-10-16T03:37:07;100064.72;;;14.30;87.48
75231;BME280;63814;50.118;8.714;2022-10-16T03:39:33;100056.00;;;14.29;87.90
75231;BME280;63814;50.118;8.714;2022-10-16T03:42:01;100054.28;;;14.28;87.95
75231;BME280;63814;50.118;8.714;2022-10-16T03:44:28;100054.19;;;14.30;87.11
75231;BME280;63814;50.118;8.714;2022-10-16T03:46:54;100045.75;;;14.25;87.53
75231;BME280;63814;50.118;8.714;2022-10-16T03:49:21;100071.31;;;14.36;87.51
75231;BME280;63814;50.118;8.714;2022-10-16T03:51:47;100077.34;;;14.38;87.22
75231;BME280;63814;50.118;8.714;2022-10-16T03:54:14;100071.81;;;14.41;87.49
75231;BME280;63814;50.118;8.714;2022-10-16T03:56:41;100074.56;;;14.39;87.13
75231;BME280;63814;50.118;8.714;2022-10-16T03:59:08;100066.03;;;14.36;87.47
75231;BME280;63814;50.118;8.714;2022-10-16T04:01:35;100051.78;;;14.38;86.72
75231;BME280;63814;50.118;8.714;2022-10-16T04:04:01;100049.28;;;14.37;86.82
75231;BME280;63814;50.118;8.714;2022-10-16T04:06:28;100066.78;;;14.38;87.43
75231;BME280;63814;50.118;8.714;2022-10-16T04:08:54;100071.09;;;14.39;86.52
75231;BME280;63814;50.118;8.714;2022-10-16T04:11:21;100063.31;;;14.37;87.32
75231;BME280;63814;50.118;8.714;2022-10-16T04:13:48;100061.50;;;14.38;87.63
75231;BME280;63814;50.118;8.714;2022-10-16T04:16:15;100061.63;;;14.36;87.46
75231;BME280;63814;50.118;8.714;2022-10-16T04:18:42;100067.75;;;14.37;87.36
75231;BME280;63814;50.118;8.714;2022-10-16T04:21:08;100079.97;;;14.38;87.24
75231;BME280;63814;50.118;8.714;2022-10-16T04:23:35;100083.56;;;14.37;87.53
75231;BME280;63814;50.118;8.714;2022-10-16T04:26:01;100081.16;;;14.34;88.01
75231;BME280;63814;50.118;8.714;2022-10-16T04:28:28;100085.59;;;14.33;87.92
75231;BME280;63814;50.118;8.714;2022-10-16T04:30:55;100094.84;;;14.39;88.43
75231;BME280;63814;50.118;8.714;2022-10-16T04:33:23;100066.88;;;14.25;87.80
75231;BME280;63814;50.118;8.714;2022-10-16T04:35:56;100085.13;;;14.39;87.76
75231;BME280;63814;50.118;8.714;2022-10-16T04:38:23;100084.28;;;14.39;87.65
75231;BME280;63814;50.118;8.714;2022-10-16T04:40:49;100087.16;;;14.36;87.91
75231;BME280;63814;50.118;8.714;2022-10-16T04:43:16;100085.47;;;14.35;88.14
75231;BME280;63814;50.118;8.714;2022-10-16T04:45:42;100092.31;;;14.37;88.14
75231;BME280;63814;50.118;8.714;2022-10-16T04:48:09;100087.88;;;14.38;88.42
75231;BME280;63814;50.118;8.714;2022-10-16T04:50:36;100096.88;;;14.35;88.15
75231;BME280;63814;50.118;8.714;2022-10-16T04:53:03;100101.78;;;14.40;88.25
75231;BME280;63814;50.118;8.714;2022-10-16T04:55:29;100087.03;;;14.37;87.62
75231;BME280;63814;50.118;8.714;2022-10-16T04:57:56;100081.75;;;14.37;86.94
75231;BME280;63814;50.118;8.714;2022-10-16T05:00:22;100082.47;;;14.39;86.97
75231;BME280;63814;50.118;8.714;2022-10-16T05:02:49;100088.59;;;14.40;87.31
75231;BME280;63814;50.118;8.714;2022-10-16T05:05:16;100087.66;;;14.41;87.31
75231;BME280;63814;50.118;8.714;2022-10-16T05:07:45;100095.44;;;14.42;86.76
75231;BME280;63814;50.118;8.714;2022-10-16T05:10:12;100102.41;;;14.43;87.49
75231;BME280;63814;50.118;8.714;2022-10-16T05:12:39;100091.97;;;14.42;87.29
75231;BME280;63814;50.118;8.714;2022-10-16T05:15:06;100098.91;;;14.43;86.58
75231;BME280;63814;50.118;8.714;2022-10-16T05:17:33;100096.28;;;14.43;86.62
75231;BME280;63814;50.118;8.714;2022-10-16T05:19:59;100101.56;;;14.43;87.41
75231;BME280;63814;50.118;8.714;2022-10-16T05:22:26;100102.50;;;14.42;87.07
75231;BME280;63814;50.118;8.714;2022-10-16T05:24:53;100104.19;;;14.43;86.94
75231;BME280;63814;50.118;8.714;2022-10-16T05:27:20;100103.25;;;14.44;87.06
75231;BME280;63814;50.118;8.714;2022-10-16T05:29:47;100096.97;;;14.34;87.29
75231;BME280;63814;50.118;8.714;2022-10-16T05:32:15;100110.41;;;14.42;86.85
75231;BME280;63814;50.118;8.714;2022-10-16T05:34:42;100106.47;;;14.36;86.49
75231;BME280;63814;50.118;8.714;2022-10-16T05:37:09;100101.56;;;14.43;87.41
75231;BME280;63814;50.118;8.714;2022-10-16T05:39:36;100084.53;;;14.47;86.86
75231;BME280;63814;50.118;8.714;2022-10-16T05:42:05;100080.44;;;14.43;86.87
75231;BME280;63814;50.118;8.714;2022-10-16T05:44:31;100083.09;;;14.43;87.49
75231;BME280;63814;50.118;8.714;2022-10-16T05:46:58;100058.38;;;14.32;87.62
75231;BME280;63814;50.118;8.714;2022-10-16T05:49:25;100093.78;;;14.41;87.75
75231;BME280;63814;50.118;8.714;2022-10-16T05:51:51;100093.88;;;14.40;87.54
75231;BME280;63814;50.118;8.714;2022-10-16T05:54:18;100107.94;;;14.40;86.92
75231;BME280;63814;50.118;8.714;2022-10-16T05:56:45;100103.47;;;14.41;86.77
75231;BME280;63814;50.118;8.714;2022-10-16T05:59:12;100118.34;;;14.42;86.89
75231;BME280;63814;50.118;8.714;2022-10-16T06:01:39;100124.34;;;14.44;86.96
75231;BME280;63814;50.118;8.714;2022-10-16T06:04:05;100131.31;;;14.45;86.91
75231;BME280;63814;50.118;8.714;2022-10-16T06:06:32;100133.00;;;14.46;87.04
75231;BME280;63814;50.118;8.714;2022-10-16T06:08:58;100141.63;;;14.48;87.51
75231;BME280;63814;50.118;8.714;2022-10-16T06:11:26;100139.94;;;14.47;87.11
75231;BME280;63814;50.118;8.714;2022-10-16T06:13:55;100129.84;;;14.41;87.09
75231;BME280;63814;50.118;8.714;2022-10-16T06:16:24;100123.25;;;14.35;87.63
75231;BME280;63814;50.118;8.714;2022-10-16T06:18:51;100138.88;;;14.50;87.14
75231;BME280;63814;50.118;8.714;2022-10-16T06:21:20;100141.25;;;14.53;87.51
75231;BME280;63814;50.118;8.714;2022-10-16T06:23:47;100145.59;;;14.54;87.08
75231;BME280;63814;50.118;8.714;2022-10-16T06:26:16;100153.50;;;14.54;87.42
75231;BME280;63814;50.118;8.714;2022-10-16T06:28:44;100142.84;;;14.55;87.31
75231;BME280;63814;50.118;8.714;2022-10-16T06:31:11;100154.09;;;14.57;87.14
75231;BME280;63814;50.118;8.714;2022-10-16T06:33:39;100141.41;;;14.51;87.21
75231;BME280;63814;50.118;8.714;2022-10-16T06:36:08;100157.84;;;14.66;87.26
75231;BME280;63814;50.118;8.714;2022-10-16T06:38:35;100155.81;;;14.70;87.40
75231;BME280;63814;50.118;8.714;2022-10-16T06:41:02;100154.13;;;14.69;87.27
75231;BME280;63814;50.118;8.714;2022-10-16T06:43:30;100163.31;;;14.76;87.38
75231;BME280;63814;50.118;8.714;2022-10-16T06:45:59;100109.34;;;14.44;87.24
75231;BME280;63814;50.118;8.714;2022-10-16T06:48:26;100149.16;;;14.77;87.35
75231;BME280;63814;50.118;8.714;2022-10-16T06:50:58;100146.50;;;14.77;87.50
75231;BME280;63814;50.118;8.714;2022-10-16T06:53:27;100156.00;;;14.80;87.47
75231;BME280;63814;50.118;8.714;2022-10-16T06:55:53;100161.63;;;14.86;87.50
75231;BME280;63814;50.118;8.714;2022-10-16T06:58:20;100166.22;;;14.96;87.14
75231;BME280;63814;50.118;8.714;2022-10-16T07:00:47;100177.97;;;15.03;87.03
75231;BME280;63814;50.118;8.714;2022-10-16T07:03:13;100174.97;;;15.08;86.62
75231;BME280;63814;50.118;8.714;2022-10-16T07:05:41;100172.69;;;15.15;86.73
75231;BME280;63814;50.118;8.714;2022-10-16T07:08:09;100169.56;;;15.21;86.45
75231;BME280;63814;50.118;8.714;2022-10-16T07:10:36;100150.84;;;15.12;86.59
75231;BME280;63814;50.118;8.714;2022-10-16T07:13:02;100172.00;;;15.24;86.37
75231;BME280;63814;50.118;8.714;2022-10-16T07:15:29;100180.75;;;15.24;86.56
75231;BME280;63814;50.118;8.714;2022-10-16T07:17:56;100183.97;;;15.28;86.37
75231;BME280;63814;50.118;8.714;2022-10-16T07:20:22;100194.44;;;15.30;86.41
75231;BME280;63814;50.118;8.714;2022-10-16T07:22:49;100138.59;;;15.00;86.41
75231;BME280;63814;50.118;8.714;2022-10-16T07:25:17;100188.06;;;15.32;86.40
75231;BME280;63814;50.118;8.714;2022-10-16T07:27:43;100198.75;;;15.42;86.07
75231;BME280;63814;50.118;8.714;2022-10-16T07:30:10;100201.84;;;15.47;86.32
75231;BME280;63814;50.118;8.714;2022-10-16T07:32:37;100199.25;;;15.36;86.24
75231;BME280;63814;50.118;8.714;2022-10-16T07:35:04;100218.81;;;15.45;86.11
75231;BME280;63814;50.118;8.714;2022-10-16T07:37:30;100216.28;;;15.43;85.70
75231;BME280;63814;50.118;8.714;2022-10-16T07:39:57;100235.97;;;15.39;86.01
75231;BME280;63814;50.118;8.714;2022-10-16T07:42:25;100235.25;;;15.37;86.27
75231;BME280;63814;50.118;8.714;2022-10-16T07:44:51;100234.28;;;15.38;85.99
75231;BME280;63814;50.118;8.714;2022-10-16T07:47:17;100235.97;;;15.39;86.27
75231;BME280;63814;50.118;8.714;2022-10-16T07:49:44;100250.53;;;15.45;85.98
75231;BME280;63814;50.118;8.714;2022-10-16T07:52:10;100258.44;;;15.45;86.34
75231;BME280;63814;50.118;8.714;2022-10-16T07:54:37;100254.34;;;15.40;86.64
75231;BME280;63814;50.118;8.714;2022-10-16T07:57:03;100252.19;;;15.34;86.60
75231;BME280;63814;50.118;8.714;2022-10-16T07:59:31;100243.53;;;15.44;86.45
75231;BME280;63814;50.118;8.714;2022-10-16T08:01:57;100242.09;;;15.39;86.34
75231;BME280;63814;50.118;8.714;2022-10-16T08:04:24;100251.34;;;15.45;86.34
75231;BME280;63814;50.118;8.714;2022-10-16T08:06:50;100250.03;;;15.51;86.36
75231;BME280;63814;50.118;8.714;2022-10-16T08:09:17;100265.88;;;15.51;85.79
75231;BME280;63814;50.118;8.714;2022-10-16T08:11:43;100283.66;;;15.49;86.05
75231;BME280;63814;50.118;8.714;2022-10-16T08:14:10;100289.81;;;15.49;86.38
75231;BME280;63814;50.118;8.714;2022-10-16T08:16:38;100289.41;;;15.31;86.87
75231;BME280;63814;50.118;8.714;2022-10-16T08:19:04;100295.53;;;15.32;87.06
75231;BME280;63814;50.118;8.714;2022-10-16T08:21:30;100287.00;;;15.28;87.02
75231;BME280;63814;50.118;8.714;2022-10-16T08:23:57;100292.53;;;15.25;87.29
75231;BME280;63814;50.118;8.714;2022-10-16T08:26:25;100277.25;;;15.17;87.32
75231;BME280;63814;50.118;8.714;2022-10-16T08:28:52;100290.00;;;15.23;87.84
75231;BME280;63814;50.118;8.714;2022-10-16T08:31:20;100293.97;;;15.29;87.59
75231;BME280;63814;50.118;8.714;2022-10-16T08:33:48;100303.81;;;15.27;87.43
75231;BME280;63814;50.118;8.714;2022-10-16T08:36:15;100306.44;;;15.27;87.46
75231;BME280;63814;50.118;8.714;2022-10-16T08:38:42;100310.06;;;15.26;87.64
75231;BME280;63814;50.118;8.714;2022-10-16T08:41:26;100314.47;;;15.25;87.82
75231;BME280;63814;50.118;8.714;2022-10-16T08:44:19;100310.31;;;15.23;87.71
75231;BME280;63814;50.118;8.714;2022-10-16T08:46:54;100324.22;;;15.25;87.87
75231;BME280;63814;50.118;8.714;2022-10-16T08:49:27;100322.09;;;15.30;87.61
75231;BME280;63814;50.118;8.714;2022-10-16T08:51:55;100319.31;;;15.32;87.64
75231;BME280;63814;50.118;8.714;2022-10-16T08:54:27;100327.13;;;15.33;87.50
75231;BME280;63814;50.118;8.714;2022-10-16T08:56:55;100334.19;;;15.33;87.42
75231;BME280;63814;50.118;8.714;2022-10-16T08:59:22;100329.25;;;15.28;87.70
75231;BME280;63814;50.118;8.714;2022-10-16T09:01:50;100336.13;;;15.31;88.10
75231;BME280;63814;50.118;8.714;2022-10-16T09:04:49;100341.16;;;15.22;88.64
75231;BME280;63814;50.118;8.714;2022-10-16T09:07:25;100351.34;;;15.16;89.33
75231;BME280;63814;50.118;8.714;2022-10-16T09:10:13;100356.63;;;15.16;89.55
75231;BME280;63814;50.118;8.714;2022-10-16T09:12:48;100355.84;;;15.02;88.82
75231;BME280;63814;50.118;8.714;2022-10-16T09:15:27;100361.84;;;15.04;89.00
75231;BME280;63814;50.118;8.714;2022-10-16T09:18:00;100354.53;;;15.08;88.87
75231;BME280;63814;50.118;8.714;2022-10-16T09:20:35;100360.19;;;15.15;88.74
75231;BME280;63814;50.118;8.714;2022-10-16T09:23:14;100371.28;;;15.20;88.55
75231;BME280;63814;50.118;8.714;2022-10-16T09:25:44;100362.63;;;15.18;88.40
75231;BME280;63814;50.118;8.714;2022-10-16T09:28:11;100371.16;;;15.21;88.34
75231;BME280;63814;50.118;8.714;2022-10-16T09:30:37;100349.03;;;15.11;88.36
75231;BME280;63814;50.118;8.714;2022-10-16T09:33:05;100383.78;;;15.29;88.28
75231;BME280;63814;50.118;8.714;2022-10-16T09:35:36;100390.78;;;15.30;88.34
75231;BME280;63814;50.118;8.714;2022-10-16T09:38:03;100388.59;;;15.35;87.75
75231;BME280;63814;50.118;8.714;2022-10-16T09:40:31;100374.63;;;15.22;87.68
75231;BME280;63814;50.118;8.714;2022-10-16T09:43:03;100404.91;;;15.29;87.83
75231;BME280;63814;50.118;8.714;2022-10-16T09:45:32;100407.69;;;15.27;87.83
75231;BME280;63814;50.118;8.714;2022-10-16T09:48:01;100408.75;;;15.25;88.39
75231;BME280;63814;50.118;8.714;2022-10-16T09:50:37;100392.41;;;15.20;88.14
75231;BME280;63814;50.118;8.714;2022-10-16T09:53:06;100392.38;;;15.08;88.43
75231;BME280;63814;50.118;8.714;2022-10-16T09:55:32;100406.56;;;15.19;87.58
75231;BME280;63814;50.118;8.714;2022-10-16T09:57:59;100404.53;;;15.22;88.45
75231;BME280;63814;50.118;8.714;2022-10-16T10:00:25;100392.28;;;15.21;88.64
75231;BME280;63814;50.118;8.714;2022-10-16T10:02:53;100410.50;;;15.49;88.07
75231;BME280;63814;50.118;8.714;2022-10-16T10:05:22;100416.03;;;15.57;87.62
75231;BME280;63814;50.118;8.714;2022-10-16T10:07:56;100413.75;;;15.52;87.76
75231;BME280;63814;50.118;8.714;2022-10-16T10:10:24;100417.09;;;15.43;87.17
75231;BME280;63814;50.118;8.714;2022-10-16T10:12:52;100415.53;;;15.40;87.14
75231;BME280;63814;50.118;8.714;2022-10-16T10:15:19;100386.19;;;15.32;87.44
75231;BME280;63814;50.118;8.714;2022-10-16T10:17:48;100406.94;;;15.73;86.54
75231;BME280;63814;50.118;8.714;2022-10-16T10:20:23;100411.31;;;16.08;86.66
75231;BME280;63814;50.118;8.714;2022-10-16T10:22:50;100405.09;;;16.32;84.67
75231;BME280;63814;50.118;8.714;2022-10-16T10:25:33;100410.84;;;16.48;83.48
75231;BME280;63814;50.118;8.714;2022-10-16T10:28:40;100393.53;;;16.33;83.51
75231;BME280;63814;50.118;8.714;2022-10-16T10:31:14;100399.78;;;16.32;83.92
75231;BME280;63814;50.118;8.714;2022-10-16T10:33:46;100403.41;;;16.31;82.84
75231;BME280;63814;50.118;8.714;2022-10-16T10:36:24;100405.47;;;16.27;84.05
75231;BME280;63814;50.118;8.714;2022-10-16T10:38:54;100407.00;;;16.30;83.49
75231;BME280;63814;50.118;8.714;2022-10-16T10:41:42;100405.59;;;16.81;80.22
75231;BME280;63814;50.118;8.714;2022-10-16T10:44:20;100397.94;;;17.32;78.99
75231;BME280;63814;50.118;8.714;2022-10-16T10:46:54;100398.06;;;17.30;80.06
75231;BME280;63814;50.118;8.714;2022-10-16T10:49:34;100386.72;;;17.40;80.63
75231;BME280;63814;50.118;8.714;2022-10-16T10:52:18;100393.75;;;17.51;79.25
75231;BME280;63814;50.118;8.714;2022-10-16T10:54:55;100401.78;;;17.61;79.22
75231;BME280;63814;50.118;8.714;2022-10-16T10:57:30;100396.91;;;17.66;77.79
75231;BME280;63814;50.118;8.714;2022-10-16T11:00:09;100373.72;;;18.10;77.79
75231;BME280;63814;50.118;8.714;2022-10-16T11:02:48;100386.63;;;19.83;71.71
75231;BME280;63814;50.118;8.714;2022-10-16T11:05:35;100383.81;;;20.22;69.09
75231;BME280;63814;50.118;8.714;2022-10-16T11:08:10;100375.50;;;21.71;65.72
75231;BME280;63814;50.118;8.714;2022-10-16T11:10:44;100357.91;;;23.79;60.37
75231;BME280;63814;50.118;8.714;2022-10-16T11:13:21;100364.72;;;24.38;55.94
75231;BME280;63814;50.118;8.714;2022-10-16T11:15:52;100355.09;;;24.75;54.53
75231;BME280;63814;50.118;8.714;2022-10-16T11:18:25;100358.97;;;24.73;54.75
75231;BME280;63814;50.118;8.714;2022-10-16T11:20:56;100367.75;;;23.95;55.05
75231;BME280;63814;50.118;8.714;2022-10-16T11:23:26;100368.97;;;24.24;55.55
75231;BME280;63814;50.118;8.714;2022-10-16T11:25:56;100365.09;;;25.43;53.50
75231;BME280;63814;50.118;8.714;2022-10-16T11:28:31;100373.44;;;24.63;54.38
75231;BME280;63814;50.118;8.714;2022-10-16T11:31:04;100377.41;;;22.81;59.23
75231;BME280;63814;50.118;8.714;2022-10-16T11:33:38;100383.38;;;21.09;64.25
75231;BME280;63814;50.118;8.714;2022-10-16T11:36:10;100383.19;;;21.29;65.41
75231;BME280;63814;50.118;8.714;2022-10-16T11:38:43;100382.88;;;20.60;66.79
75231;BME280;63814;50.118;8.714;2022-10-16T11:41:21;100386.00;;;21.72;63.92
75231;BME280;63814;50.118;8.714;2022-10-16T11:43:56;100377.97;;;21.46;63.83
75231;BME280;63814;50.118;8.714;2022-10-16T11:46:26;100384.88;;;20.57;66.50
75231;BME280;63814;50.118;8.714;2022-10-16T11:48:58;100389.97;;;19.85;68.92
75231;BME280;63814;50.118;8.714;2022-10-16T11:51:31;100397.91;;;19.37;70.39
75231;BME280;63814;50.118;8.714;2022-10-16T11:54:04;100403.09;;;19.09;72.28
75231;BME280;63814;50.118;8.714;2022-10-16T11:56:36;100397.19;;;18.96;74.11
75231;BME280;63814;50.118;8.714;2022-10-16T11:59:10;100392.03;;;18.84;73.45
75231;BME280;63814;50.118;8.714;2022-10-16T12:01:44;100392.31;;;19.01;73.34
75231;BME280;63814;50.118;8.714;2022-10-16T12:04:21;100377.09;;;20.82;68.77
75231;BME280;63814;50.118;8.714;2022-10-16T12:06:57;100377.56;;;22.63;61.18
75231;BME280;63814;50.118;8.714;2022-10-16T12:09:27;100366.03;;;24.10;57.90
75231;BME280;63814;50.118;8.714;2022-10-16T12:11:55;100366.13;;;25.04;54.31
75231;BME280;63814;50.118;8.714;2022-10-16T12:14:35;100359.78;;;25.20;52.66
75231;BME280;63814;50.118;8.714;2022-10-16T12:17:03;100369.88;;;26.38;51.19
75231;BME280;63814;50.118;8.714;2022-10-16T12:19:31;100371.88;;;26.30;49.72
75231;BME280;63814;50.118;8.714;2022-10-16T12:22:00;100367.19;;;25.33;51.86
75231;BME280;63814;50.118;8.714;2022-10-16T12:24:33;100360.59;;;25.74;50.19
75231;BME280;63814;50.118;8.714;2022-10-16T12:27:00;100373.69;;;24.22;54.43
75231;BME280;63814;50.118;8.714;2022-10-16T12:29:36;100358.50;;;25.46;51.91
75231;BME280;63814;50.118;8.714;2022-10-16T12:32:04;100358.53;;;26.21;49.05
75231;BME280;63814;50.118;8.714;2022-10-16T12:34:37;100358.25;;;26.97;47.55
75231;BME280;63814;50.118;8.714;2022-10-16T12:37:11;100363.88;;;27.24;46.38
75231;BME280;63814;50.118;8.714;2022-10-16T12:39:39;100367.91;;;27.63;45.53
75231;BME280;63814;50.118;8.714;2022-10-16T12:42:20;100380.50;;;27.05;46.58
75231;BME280;63814;50.118;8.714;2022-10-16T12:44:48;100389.19;;;26.12;48.03
75231;BME280;63814;50.118;8.714;2022-10-16T12:47:20;100368.81;;;25.04;51.13
75231;BME280;63814;50.118;8.714;2022-10-16T12:49:49;100376.72;;;26.41;47.51
75231;BME280;63814;50.118;8.714;2022-10-16T12:52:34;100384.16;;;25.49;49.23
75231;BME280;63814;50.118;8.714;2022-10-16T12:55:02;100406.44;;;24.96;50.73
75231;BME280;63814;50.118;8.714;2022-10-16T12:57:55;100390.78;;;25.23;50.69
75231;BME280;63814;50.118;8.714;2022-10-16T13:00:32;100396.13;;;24.21;51.99
75231;BME280;63814;50.118;8.714;2022-10-16T13:03:23;100387.84;;;23.82;53.95